Time;durP1;ratioP1;P1;durP2;ratioP2;P2;SDS_P1;SDS_P2;PMS_P1;PMS_P2;Temp;Humidity;BMP_temperature;BMP_pressure;BME280_temperature;BME280_humidity;BME280_pressure;Samples;Min_cycle;Max_cycle;Signal;HPM_P1;HPM_P2
2021/12/20 00:03:06;;;;;;;23.63;3.20;;;;;;;3.20;100.00;98966.03;10342678;28;20045;-64
2021/12/20 00:08:10;;;;;;;21.80;3.50;;;;;;;3.09;100.00;98976.53;10347542;28;20408;-63
2021/12/20 00:13:16;;;;;;;22.23;3.05;;;;;;;3.06;100.00;98969.63;10368640;28;20149;-62
2021/12/20 00:18:19;;;;;;;21.42;3.38;;;;;;;2.97;100.00;98967.56;10349735;28;20062;-63
2021/12/20 00:23:22;;;;;;;26.17;3.65;;;;;;;2.88;100.00;98968.16;10356489;28;20085;-60
2021/12/20 00:28:27;;;;;;;21.95;2.80;;;;;;;2.75;100.00;98982.25;10353428;28;20049;-58
2021/12/20 00:33:33;;;;;;;24.67;3.40;;;;;;;2.69;100.00;98977.31;10355842;28;20121;-61
2021/12/20 00:44:01;;;;;;;21.00;2.88;;;;;;;2.47;100.00;98969.81;10358387;28;20046;-63
2021/12/20 00:49:24;;;;;;;22.05;2.60;;;;;;;2.36;100.00;98983.81;10355791;28;20481;-63
2021/12/20 00:54:27;;;;;;;21.73;3.10;;;;;;;2.20;100.00;98991.88;10368947;28;20532;-61
2021/12/20 00:59:32;;;;;;;22.75;2.92;;;;;;;2.11;100.00;98985.31;10358299;28;20038;-62
2021/12/20 01:04:35;;;;;;;19.80;3.20;;;;;;;1.97;100.00;99002.13;10342961;28;20052;-65
2021/12/20 01:09:38;;;;;;;19.45;2.70;;;;;;;1.88;100.00;99001.78;10348968;28;20541;-62
2021/12/20 01:14:43;;;;;;;13.32;2.58;;;;;;;1.81;100.00;99004.84;10318258;28;20054;-63
2021/12/20 01:19:46;;;;;;;18.08;2.55;;;;;;;1.76;100.00;99006.06;10341942;28;20053;-62
2021/12/20 01:24:49;;;;;;;12.13;2.15;;;;;;;1.68;100.00;99011.81;10348572;28;20050;-62
2021/12/20 01:29:53;;;;;;;12.55;2.00;;;;;;;1.61;100.00;99011.31;10337617;28;20046;-63
2021/12/20 01:34:56;;;;;;;9.13;1.92;;;;;;;1.62;100.00;99025.44;10345175;28;20048;-62
2021/12/20 01:40:00;;;;;;;14.07;2.03;;;;;;;1.59;100.00;99015.03;10355895;28;20373;-61
2021/12/20 01:45:05;;;;;;;15.32;2.05;;;;;;;1.47;100.00;99014.75;10335626;28;20052;-63
2021/12/20 01:50:16;;;;;;;9.10;1.77;;;;;;;1.43;100.00;99002.63;10337770;28;20514;-66
2021/12/20 01:55:22;;;;;;;10.95;2.13;;;;;;;1.44;100.00;99009.66;10348178;28;20050;-63
2021/12/20 02:00:29;;;;;;;14.32;2.15;;;;;;;1.41;100.00;99007.16;10347078;28;20136;-66
2021/12/20 02:05:48;;;;;;;12.98;2.20;;;;;;;1.37;100.00;99021.53;10335533;28;20049;-63
2021/12/20 02:10:55;;;;;;;15.38;2.13;;;;;;;1.34;100.00;99029.72;10329392;28;20465;-61
2021/12/20 02:16:01;;;;;;;16.15;2.10;;;;;;;1.28;100.00;99024.75;10346558;28;20056;-67
2021/12/20 02:21:06;;;;;;;16.08;2.47;;;;;;;1.26;100.00;99021.31;10353109;28;20050;-63
2021/12/20 02:26:11;;;;;;;17.90;2.20;;;;;;;1.18;100.00;99035.00;10353745;28;20545;-63
2021/12/20 02:37:02;;;;;;;18.02;2.28;;;;;;;1.02;100.00;99027.06;10336780;28;20046;-62
2021/12/20 02:42:05;;;;;;;12.52;2.40;;;;;;;0.98;100.00;99030.84;10356384;28;20062;-61
2021/12/20 02:47:15;;;;;;;12.32;2.17;;;;;;;0.89;100.00;99032.19;10338197;28;20078;-64
2021/12/20 02:52:19;;;;;;;16.05;2.17;;;;;;;0.82;100.00;99037.00;10355727;28;20049;-62
2021/12/20 02:57:48;;;;;;;13.60;2.13;;;;;;;0.76;100.00;99037.34;10343055;28;20494;-66
2021/12/20 03:02:51;;;;;;;14.63;2.10;;;;;;;0.71;100.00;99042.88;10333000;28;20050;-60
2021/12/20 03:07:56;;;;;;;11.98;2.28;;;;;;;0.71;100.00;99036.72;10335649;28;20058;-62
2021/12/20 03:13:04;;;;;;;12.82;2.30;;;;;;;0.64;100.00;99033.53;10339212;28;20044;-62
2021/12/20 03:18:09;;;;;;;16.42;2.47;;;;;;;0.55;100.00;99044.66;10370909;28;20066;-62
2021/12/20 03:23:14;;;;;;;18.95;2.47;;;;;;;0.52;100.00;99029.78;10357912;28;20112;-64
2021/12/20 03:28:20;;;;;;;16.40;2.45;;;;;;;0.41;100.00;99035.63;10375210;28;20688;-63
2021/12/20 03:33:23;;;;;;;12.02;2.33;;;;;;;0.36;100.00;99040.31;10351453;28;20050;-59
2021/12/20 03:38:27;;;;;;;13.52;2.20;;;;;;;0.32;100.00;99044.09;10362126;28;20050;-60
2021/12/20 03:43:31;;;;;;;16.05;2.17;;;;;;;0.27;100.00;99046.97;10352228;28;20038;-62
2021/12/20 03:48:35;;;;;;;19.85;2.55;;;;;;;0.18;100.00;99058.03;10357040;28;20104;-61
2021/12/20 03:53:39;;;;;;;16.50;2.88;;;;;;;0.08;100.00;99064.75;10351913;28;20112;-65
2021/12/20 03:58:43;;;;;;;12.90;2.80;;;;;;;-0.06;100.00;99061.00;10361193;28;20046;-63
2021/12/20 04:03:46;;;;;;;18.08;2.58;;;;;;;-0.10;100.00;99051.53;10358731;28;20125;-61
2021/12/20 04:08:50;;;;;;;20.40;3.10;;;;;;;-0.22;100.00;99054.81;10338360;28;20054;-62
2021/12/20 04:13:56;;;;;;;17.05;2.67;;;;;;;-0.28;100.00;99063.03;10362255;28;20038;-62
2021/12/20 04:18:59;;;;;;;21.58;2.40;;;;;;;-0.36;100.00;99066.94;10358899;28;20493;-64
2021/12/20 04:24:04;;;;;;;18.85;2.42;;;;;;;-0.44;100.00;99070.88;10358930;28;20047;-62
2021/12/20 04:29:07;;;;;;;15.60;2.45;;;;;;;-0.53;100.00;99083.66;10371123;28;20081;-63
2021/12/20 04:34:14;;;;;;;15.27;2.80;;;;;;;-0.59;100.00;99076.03;10364430;28;20120;-61
2021/12/20 04:39:26;;;;;;;15.50;2.33;;;;;;;-0.64;100.00;99075.38;10402194;28;20057;-66
2021/12/20 04:44:29;;;;;;;22.38;3.53;;;;;;;-0.72;100.00;99073.09;10385379;28;20065;-64
2021/12/20 04:49:33;;;;;;;18.27;2.65;;;;;;;-0.75;100.00;99089.13;10352882;28;20070;-65
2021/12/20 04:54:38;;;;;;;20.35;2.38;;;;;;;-0.82;100.00;99083.25;10345715;28;20038;-64
2021/12/20 04:59:41;;;;;;;18.42;2.92;;;;;;;-0.85;100.00;99087.84;10349711;28;20121;-64
2021/12/20 05:04:45;;;;;;;15.18;2.60;;;;;;;-0.88;100.00;99083.56;10338753;28;20073;-64
2021/12/20 05:09:49;;;;;;;19.40;3.10;;;;;;;-0.87;100.00;99094.97;10333527;28;20054;-62
2021/12/20 05:14:52;;;;;;;12.77;2.50;;;;;;;-0.90;100.00;99101.28;10343327;28;20456;-62
2021/12/20 05:19:55;;;;;;;19.55;3.00;;;;;;;-0.96;100.00;99096.31;10344985;28;20045;-63
2021/12/20 05:24:59;;;;;;;14.75;2.47;;;;;;;-0.99;100.00;99110.50;10349335;28;20078;-63
2021/12/20 05:30:11;;;;;;;19.60;2.67;;;;;;;-1.01;100.00;99107.09;10342931;28;20406;-63
2021/12/20 05:35:16;;;;;;;16.98;3.10;;;;;;;-1.05;100.00;99116.09;10339937;28;20108;-64
2021/12/20 05:40:21;;;;;;;16.48;2.83;;;;;;;-1.05;100.00;99124.03;10345628;28;20050;-62
2021/12/20 05:45:24;;;;;;;17.67;2.85;;;;;;;-1.09;100.00;99139.19;10348972;28;20038;-60
2021/12/20 05:50:27;;;;;;;14.57;2.58;;;;;;;-1.10;100.00;99137.47;10349374;28;20063;-61
2021/12/20 05:55:32;;;;;;;24.42;2.50;;;;;;;-1.14;100.00;99127.09;10352853;23;20057;-57
2021/12/20 06:00:35;;;;;;;17.98;3.30;;;;;;;-1.17;100.00;99136.00;10338471;28;20038;-58
2021/12/20 06:05:41;;;;;;;12.70;3.50;;;;;;;-1.16;100.00;99150.09;10354751;28;20069;-58
2021/12/20 06:10:45;;;;;;;17.85;3.03;;;;;;;-1.13;100.00;99147.31;10358591;28;20796;-58
2021/12/20 06:15:49;;;;;;;18.30;2.88;;;;;;;-1.13;100.00;99157.91;10340579;28;20046;-56
2021/12/20 06:20:52;;;;;;;20.73;3.22;;;;;;;-1.16;100.00;99166.81;10359834;28;20080;-58
2021/12/20 06:25:56;;;;;;;18.02;3.30;;;;;;;-1.19;100.00;99174.03;10356138;28;20038;-58
2021/12/20 06:31:00;;;;;;;16.50;3.05;;;;;;;-1.20;100.00;99167.03;10355562;28;20585;-57
2021/12/20 06:36:04;;;;;;;13.50;2.97;;;;;;;-1.26;100.00;99171.66;10357728;28;20442;-55
2021/12/20 06:41:08;;;;;;;15.95;3.00;;;;;;;-1.29;100.00;99166.50;10355761;28;20042;-55
2021/12/20 06:46:17;;;;;;;19.80;3.05;;;;;;;-1.37;100.00;99171.28;10341272;28;20045;-57
2021/12/20 06:51:21;;;;;;;13.82;2.50;;;;;;;-1.34;100.00;99180.84;10358218;28;20046;-58
2021/12/20 06:56:27;;;;;;;14.15;2.58;;;;;;;-1.37;100.00;99184.50;10367086;28;20172;-59
2021/12/20 07:01:30;;;;;;;21.63;2.90;;;;;;;-1.39;100.00;99181.06;10365966;28;20049;-59
2021/12/20 07:06:36;;;;;;;20.98;2.72;;;;;;;-1.42;100.00;99190.00;10361835;28;20425;-57
2021/12/20 07:11:44;;;;;;;20.45;3.40;;;;;;;-1.48;100.00;99199.97;10362901;28;20054;-59
2021/12/20 07:16:48;;;;;;;13.52;2.90;;;;;;;-1.52;100.00;99195.72;10364528;28;20065;-57
2021/12/20 07:21:53;;;;;;;13.68;3.95;;;;;;;-1.58;100.00;99195.06;10365437;28;22013;-61
2021/12/20 07:27:00;;;;;;;15.00;3.92;;;;;;;-1.63;100.00;99207.63;10367930;28;20117;-55
2021/12/20 07:32:06;;;;;;;18.67;3.67;;;;;;;-1.67;100.00;99208.66;10346488;28;20096;-60
2021/12/20 07:37:10;;;;;;;14.13;3.33;;;;;;;-1.72;100.00;99208.84;10363048;28;20525;-58
2021/12/20 07:42:16;;;;;;;15.20;3.53;;;;;;;-1.77;100.00;99210.84;10346953;28;20567;-58
2021/12/20 07:47:19;;;;;;;16.25;3.05;;;;;;;-1.80;100.00;99218.91;10364795;28;20038;-57
2021/12/20 07:52:22;;;;;;;11.88;3.50;;;;;;;-1.82;100.00;99220.72;10362405;28;20058;-57
2021/12/20 07:57:27;;;;;;;16.90;3.30;;;;;;;-1.81;100.00;99219.81;10358169;28;20072;-57
2021/12/20 08:02:30;;;;;;;16.85;3.50;;;;;;;-1.84;100.00;99212.00;10367282;28;20076;-57
2021/12/20 08:07:34;;;;;;;13.73;3.00;;;;;;;-1.83;100.00;99220.81;10364046;28;20050;-58
2021/12/20 08:12:38;;;;;;;23.42;3.83;;;;;;;-1.79;100.00;99225.03;10363273;28;20115;-56
2021/12/20 08:17:41;;;;;;;14.95;3.75;;;;;;;-1.74;100.00;99221.25;10347000;28;20052;-58
2021/12/20 08:22:46;;;;;;;13.93;3.50;;;;;;;-1.77;100.00;99221.41;10367700;28;20586;-58
2021/12/20 08:27:51;;;;;;;18.55;4.22;;;;;;;-1.74;100.00;99223.06;10342271;28;20104;-57
2021/12/20 08:32:54;;;;;;;13.68;3.53;;;;;;;-1.71;100.00;99236.16;10368466;28;20050;-58
2021/12/20 08:37:58;;;;;;;15.23;3.42;;;;;;;-1.64;100.00;99227.03;10340088;28;20461;-56
2021/12/20 08:43:03;;;;;;;22.17;3.75;;;;;;;-1.57;100.00;99230.28;10361996;28;20084;-56
2021/12/20 08:48:06;;;;;;;20.35;3.72;;;;;;;-1.51;100.00;99232.66;10362884;28;20050;-58
2021/12/20 08:53:10;;;;;;;17.60;3.75;;;;;;;-1.47;100.00;99239.53;10363211;28;20050;-58
2021/12/20 08:58:15;;;;;;;16.05;3.05;;;;;;;-1.39;100.00;99236.56;10341788;28;20137;-53
2021/12/20 09:03:18;;;;;;;14.10;2.75;;;;;;;-1.32;100.00;99235.38;10355017;28;20577;-57
2021/12/20 09:08:22;;;;;;;14.00;3.25;;;;;;;-1.24;100.00;99242.97;10334349;28;20089;-59
2021/12/20 09:13:27;;;;;;;16.17;3.15;;;;;;;-1.15;100.00;99239.94;10350473;28;20050;-59
2021/12/20 09:18:31;;;;;;;22.15;4.00;;;;;;;-1.02;100.00;99239.38;10362046;28;20049;-56
2021/12/20 09:23:34;;;;;;;22.95;3.80;;;;;;;-0.95;100.00;99239.06;10359945;28;20539;-53
2021/12/20 09:28:39;;;;;;;18.20;3.80;;;;;;;-0.86;100.00;99231.63;10360140;28;20092;-53
2021/12/20 09:33:42;;;;;;;18.50;4.20;;;;;;;-0.81;100.00;99232.28;10359425;28;20387;-55
2021/12/20 09:38:46;;;;;;;16.95;4.53;;;;;;;-0.68;100.00;99243.16;10359691;28;20133;-58
2021/12/20 09:43:52;;;;;;;24.60;5.90;;;;;;;-0.54;100.00;99235.47;10343071;28;20449;-57
2021/12/20 09:48:57;;;;;;;21.75;5.30;;;;;;;-0.42;100.00;99236.69;10360271;28;20042;-56
2021/12/20 09:54:02;;;;;;;26.45;5.47;;;;;;;-0.28;100.00;99241.31;10358990;28;20932;-59
2021/12/20 09:59:12;;;;;;;21.33;5.47;;;;;;;-0.14;100.00;99235.38;10357833;28;20058;-58
2021/12/20 10:04:20;;;;;;;23.10;4.80;;;;;;;-0.02;100.00;99229.47;10350541;28;20045;-54
2021/12/20 10:09:28;;;;;;;26.13;4.53;;;;;;;0.17;100.00;99231.25;10346300;28;20046;-53
2021/12/20 10:14:51;;;;;;;15.43;3.40;;;;;;;0.35;100.00;99244.50;10360150;28;20054;-55
2021/12/20 10:19:56;;;;;;;21.33;5.18;;;;;;;0.55;100.00;99251.47;10353276;28;20188;-58
2021/12/20 10:24:59;;;;;;;16.90;3.50;;;;;;;0.71;100.00;99241.78;10340151;28;20045;-59
2021/12/20 10:30:23;;;;;;;22.55;3.40;;;;;;;0.89;100.00;99233.81;10359004;28;20062;-56
2021/12/20 10:35:37;;;;;;;14.43;3.17;;;;;;;1.07;100.00;99232.00;10356842;28;20069;-59
2021/12/20 10:40:48;;;;;;;13.38;2.65;;;;;;;1.20;100.00;99234.84;10357621;28;20048;-58
2021/12/20 10:45:55;;;;;;;12.18;2.88;;;;;;;1.33;100.00;99235.06;10354306;28;20053;-59
2021/12/20 10:51:20;;;;;;;12.32;3.10;;;;;;;1.44;100.00;99237.13;10337822;28;20060;-60
2021/12/20 10:56:23;;;;;;;11.48;2.20;;;;;;;1.49;100.00;99240.41;10360194;28;20571;-57
2021/12/20 11:07:04;;;;;;;13.02;2.35;;;;;;;1.69;100.00;99244.63;10323522;28;20112;-58
2021/12/20 11:12:09;;;;;;;10.75;2.58;;;;;;;1.73;100.00;99240.84;10356322;28;20044;-55
2021/12/20 11:17:17;;;;;;;12.73;2.53;;;;;;;1.77;100.00;99231.78;10353013;28;20046;-58
2021/12/20 11:22:24;;;;;;;13.73;2.47;;;;;;;1.84;100.00;99238.44;10352097;28;20046;-57
2021/12/20 11:27:30;;;;;;;13.85;2.55;;;;;;;1.88;100.00;99228.53;10356771;28;20120;-55
2021/12/20 11:32:40;;;;;;;13.02;3.08;;;;;;;1.92;100.00;99239.84;10357078;28;20046;-55
2021/12/20 11:37:49;;;;;;;15.02;3.15;;;;;;;1.96;100.00;99236.03;10361192;28;20038;-54
2021/12/20 11:42:52;;;;;;;15.82;2.58;;;;;;;2.02;100.00;99224.22;10365567;28;20050;-56
2021/12/20 11:48:03;;;;;;;16.65;2.10;;;;;;;2.02;100.00;99221.56;10369771;28;20506;-58
2021/12/20 11:53:07;;;;;;;8.93;2.10;;;;;;;2.08;100.00;99226.53;10365264;28;20490;-57
2021/12/20 11:58:17;;;;;;;8.57;1.75;;;;;;;2.10;100.00;99212.19;10370325;23;20387;-61
2021/12/20 12:03:26;;;;;;;8.13;2.15;;;;;;;2.11;100.00;99208.59;10361930;28;20524;-61
2021/12/20 12:08:32;;;;;;;11.52;2.47;;;;;;;2.21;100.00;99205.41;10364286;28;20045;-63
2021/12/20 12:14:18;;;;;;;15.15;2.45;;;;;;;2.21;100.00;99208.06;10364605;28;20074;-62
2021/12/20 12:19:50;;;;;;;11.40;2.17;;;;;;;2.22;100.00;99200.03;10361971;28;20042;-61
2021/12/20 12:24:55;;;;;;;9.30;2.33;;;;;;;2.22;100.00;99199.16;10341933;28;20105;-64
2021/12/20 12:30:36;;;;;;;10.38;2.08;;;;;;;2.29;100.00;99200.53;10356759;28;20038;-61
2021/12/20 12:35:54;;;;;;;8.35;1.98;;;;;;;2.28;100.00;99204.97;10363343;28;20041;-63
2021/12/20 12:41:15;;;;;;;9.18;2.40;;;;;;;2.30;100.00;99207.53;10359807;28;20473;-63
2021/12/20 12:46:48;;;;;;;11.70;2.30;;;;;;;2.39;100.00;99201.69;10371424;28;20137;-63
2021/12/20 12:51:57;;;;;;;10.27;2.10;;;;;;;2.42;100.00;99206.81;10358264;28;20042;-63
2021/12/20 12:57:29;;;;;;;10.95;2.15;;;;;;;2.44;100.00;99218.22;10333810;28;20054;-62
2021/12/20 13:02:34;;;;;;;10.63;2.03;;;;;;;2.55;100.00;99216.72;10348426;28;20056;-62
2021/12/20 13:07:45;;;;;;;10.23;1.80;;;;;;;2.57;100.00;99212.19;10336893;28;20046;-61
2021/12/20 13:12:55;;;;;;;11.82;2.20;;;;;;;2.60;100.00;99202.22;10359562;28;20065;-66
2021/12/20 13:18:07;;;;;;;8.38;1.95;;;;;;;2.58;100.00;99204.13;10360300;28;20453;-63
2021/12/20 13:23:15;;;;;;;12.65;2.22;;;;;;;2.63;100.00;99201.19;10360118;28;20072;-66
2021/12/20 13:28:22;;;;;;;10.00;1.88;;;;;;;2.65;100.00;99207.25;10341415;28;20133;-64
2021/12/20 13:33:28;;;;;;;8.00;1.70;;;;;;;2.70;100.00;99199.84;10354503;28;20038;-60
2021/12/20 13:38:35;;;;;;;8.80;2.05;;;;;;;2.71;100.00;99212.22;10357343;28;20066;-61
2021/12/20 13:43:42;;;;;;;8.38;1.80;;;;;;;2.70;100.00;99209.66;10359492;28;20049;-64
2021/12/20 13:48:51;;;;;;;12.27;1.70;;;;;;;2.71;100.00;99214.88;10358342;28;20069;-61
2021/12/20 13:53:59;;;;;;;6.30;1.80;;;;;;;2.66;100.00;99224.94;10360397;28;20044;-66
2021/12/20 13:59:02;;;;;;;6.28;1.70;;;;;;;2.64;100.00;99224.19;10359619;28;20104;-64
2021/12/20 14:04:06;;;;;;;12.18;2.10;;;;;;;2.56;100.00;99223.75;10358213;28;20046;-62
2021/12/20 14:09:23;;;;;;;9.90;1.98;;;;;;;2.51;100.00;99224.03;10346920;28;20652;-61
2021/12/20 14:14:26;;;;;;;8.65;2.03;;;;;;;2.51;100.00;99231.19;10356931;28;20085;-63
2021/12/20 14:20:04;;;;;;;10.43;1.80;;;;;;;2.57;100.00;99231.66;10359553;28;20045;-62
2021/12/20 14:25:09;;;;;;;10.73;2.20;;;;;;;2.55;100.00;99232.69;10359380;28;20054;-60
2021/12/20 14:30:23;;;;;;;9.65;1.80;;;;;;;2.43;100.00;99234.28;10341359;28;20062;-61
2021/12/20 14:35:34;;;;;;;8.50;1.88;;;;;;;2.42;100.00;99232.56;10351712;28;20133;-63
2021/12/20 14:40:50;;;;;;;8.53;1.90;;;;;;;2.31;100.00;99230.50;10355280;28;20564;-64
2021/12/20 14:46:11;;;;;;;6.97;1.85;;;;;;;2.20;100.00;99240.91;10370858;28;20136;-62
2021/12/20 14:51:19;;;;;;;7.17;1.70;;;;;;;2.11;100.00;99245.81;10356789;28;20130;-62
2021/12/20 14:56:30;;;;;;;9.48;2.00;;;;;;;1.95;100.00;99250.28;10356683;28;20479;-63
2021/12/20 15:01:33;;;;;;;8.15;2.00;;;;;;;1.81;100.00;99243.97;10354623;28;20554;-62
2021/12/20 15:06:41;;;;;;;9.75;2.20;;;;;;;1.60;100.00;99245.13;10354725;28;20174;-62
2021/12/20 15:11:46;;;;;;;9.77;1.95;;;;;;;1.43;100.00;99246.91;10356956;28;20836;-63
2021/12/20 15:16:50;;;;;;;10.38;1.90;;;;;;;1.32;100.00;99246.63;10362043;28;20482;-61
2021/12/20 15:21:54;;;;;;;7.47;2.15;;;;;;;1.19;100.00;99239.31;10361354;28;20054;-66
2021/12/20 15:26:59;;;;;;;9.20;2.40;;;;;;;1.10;100.00;99237.16;10365376;28;20038;-60
2021/12/20 15:32:02;;;;;;;11.57;2.22;;;;;;;0.96;100.00;99247.63;10365886;28;20453;-63
2021/12/20 15:37:07;;;;;;;8.50;2.22;;;;;;;0.87;100.00;99246.31;10364534;28;21368;-61
2021/12/20 15:42:21;;;;;;;10.15;2.63;;;;;;;0.82;100.00;99251.00;10360713;28;20049;-60
2021/12/20 15:47:26;;;;;;;9.07;2.38;;;;;;;0.76;100.00;99244.22;10362848;28;20125;-62
2021/12/20 15:52:29;;;;;;;12.18;2.50;;;;;;;0.68;100.00;99249.03;10359904;28;20058;-64
2021/12/20 15:57:53;;;;;;;9.13;2.58;;;;;;;0.57;100.00;99239.84;10362177;28;20058;-61
2021/12/20 16:02:56;;;;;;;14.07;2.60;;;;;;;0.54;100.00;99244.44;10363785;28;20073;-61
2021/12/20 16:08:00;;;;;;;14.68;2.58;;;;;;;0.49;100.00;99249.13;10346754;28;20112;-63
2021/12/20 16:13:24;;;;;;;10.02;2.80;;;;;;;0.43;100.00;99247.63;10341464;28;20045;-61
2021/12/20 16:18:28;;;;;;;16.33;2.83;;;;;;;0.39;100.00;99256.69;10360283;28;20144;-62
2021/12/20 16:23:31;;;;;;;14.68;3.13;;;;;;;0.35;100.00;99260.41;10358666;28;20049;-60
2021/12/20 16:28:36;;;;;;;9.73;2.63;;;;;;;0.30;100.00;99264.13;10358327;28;20042;-62
2021/12/20 16:33:39;;;;;;;11.38;2.80;;;;;;;0.22;100.00;99271.63;10359996;28;20069;-60
2021/12/20 16:38:43;;;;;;;8.18;2.50;;;;;;;0.17;100.00;99267.47;10361705;28;20049;-60
2021/12/20 16:43:49;;;;;;;13.93;2.63;;;;;;;0.12;100.00;99268.53;10359087;28;20058;-62
2021/12/20 16:48:57;;;;;;;11.57;2.65;;;;;;;0.10;100.00;99272.22;10363113;28;20120;-60
2021/12/20 16:54:01;;;;;;;14.43;2.70;;;;;;;0.09;100.00;99263.41;10362231;28;20048;-62
2021/12/20 16:59:05;;;;;;;10.38;2.63;;;;;;;0.04;100.00;99273.38;10359539;28;20065;-61
2021/12/20 17:04:39;;;;;;;9.40;2.88;;;;;;;-0.07;100.00;99262.41;10361783;28;20137;-60
2021/12/20 17:09:43;;;;;;;9.05;3.47;;;;;;;-0.18;100.00;99268.25;10362907;28;20073;-65
2021/12/20 17:14:47;;;;;;;13.07;3.75;;;;;;;-0.32;100.00;99268.88;10350896;28;20054;-62
2021/12/20 17:19:51;;;;;;;14.18;6.50;;;;;;;-0.45;100.00;99273.88;10361576;28;20049;-58
2021/12/20 17:24:58;;;;;;;18.33;7.28;;;;;;;-0.52;100.00;99272.44;10364488;28;20046;-57
2021/12/20 17:30:03;;;;;;;10.32;3.85;;;;;;;-0.59;100.00;99276.31;10364506;28;20045;-58
2021/12/20 17:35:09;;;;;;;14.15;2.97;;;;;;;-0.66;100.00;99289.81;10357841;28;20034;-57
2021/12/20 17:40:14;;;;;;;15.25;3.90;;;;;;;-0.71;100.00;99286.50;10356387;28;20533;-58
2021/12/20 17:45:20;;;;;;;10.70;3.78;;;;;;;-0.77;100.00;99297.38;10365805;28;20113;-58
2021/12/20 17:50:24;;;;;;;9.77;3.45;;;;;;;-0.83;100.00;99297.63;10357961;28;20134;-61
2021/12/20 17:55:27;;;;;;;16.65;6.40;;;;;;;-0.95;100.00;99299.91;10344850;28;20074;-57
2021/12/20 18:00:31;;;;;;;17.92;7.10;;;;;;;-0.99;100.00;99313.31;10363567;28;20073;-60
2021/12/20 18:05:35;;;;;;;22.00;7.88;;;;;;;-1.01;100.00;99320.47;10363014;28;20052;-54
2021/12/20 18:10:40;;;;;;;21.90;7.57;;;;;;;-1.01;100.00;99321.34;10362271;28;21371;-61
2021/12/20 18:15:46;;;;;;;22.20;9.30;;;;;;;-1.01;100.00;99320.47;10356769;28;20042;-56
2021/12/20 18:20:51;;;;;;;17.50;6.70;;;;;;;-1.03;100.00;99324.94;10361040;28;20115;-58
2021/12/20 18:25:54;;;;;;;12.57;5.43;;;;;;;-1.02;100.00;99324.91;10370100;28;20102;-61
2021/12/20 18:31:06;;;;;;;12.85;5.10;;;;;;;-1.00;100.00;99323.03;10391477;28;20041;-61
2021/12/20 18:36:10;;;;;;;13.77;4.82;;;;;;;-0.97;100.00;99322.06;10396575;28;20108;-60
2021/12/20 18:41:13;;;;;;;13.60;4.30;;;;;;;-0.95;100.00;99334.28;10336755;28;20132;-62
2021/12/20 18:46:18;;;;;;;12.63;4.88;;;;;;;-0.92;100.00;99335.94;10353833;28;20497;-57
2021/12/20 18:51:23;;;;;;;18.08;7.50;;;;;;;-0.92;100.00;99330.63;10337218;28;20148;-63
2021/12/20 18:56:26;;;;;;;13.15;4.90;;;;;;;-0.93;100.00;99324.50;10356137;28;20100;-61
2021/12/20 19:01:32;;;;;;;9.02;3.35;;;;;;;-0.86;100.00;99340.09;10356694;28;20033;-62
2021/12/20 19:06:36;;;;;;;13.68;3.88;;;;;;;-0.82;100.00;99339.03;10356824;28;20402;-55
2021/12/20 19:11:47;;;;;;;14.82;3.35;;;;;;;-0.75;100.00;99339.63;10355157;28;20042;-63
2021/12/20 19:16:52;;;;;;;8.68;3.40;;;;;;;-0.72;100.00;99332.41;10355018;28;20131;-62
2021/12/20 19:21:58;;;;;;;13.20;3.63;;;;;;;-0.69;100.00;99331.41;10349599;28;20043;-65
2021/12/20 19:27:02;;;;;;;11.35;3.40;;;;;;;-0.73;100.00;99330.69;10343380;28;20136;-64
2021/12/20 19:32:08;;;;;;;9.50;3.40;;;;;;;-0.74;100.00;99334.28;10360147;28;20092;-63
2021/12/20 19:37:12;;;;;;;15.07;4.10;;;;;;;-0.80;100.00;99327.47;10332878;28;20141;-61
2021/12/20 19:42:18;;;;;;;17.58;6.57;;;;;;;-0.86;100.00;99334.81;10335767;28;20119;-65
2021/12/20 19:47:27;;;;;;;13.55;4.50;;;;;;;-0.94;100.00;99348.34;10358568;28;20472;-58
2021/12/20 19:52:30;;;;;;;24.48;4.97;;;;;;;-1.02;100.00;99350.47;10340120;28;20053;-62
2021/12/20 19:57:34;;;;;;;11.93;4.40;;;;;;;-1.10;100.00;99349.03;10328997;28;20064;-59
2021/12/20 20:02:38;;;;;;;16.45;6.75;;;;;;;-1.15;100.00;99350.16;10363065;28;20465;-63
2021/12/20 20:07:41;;;;;;;20.58;6.25;;;;;;;-1.29;100.00;99343.66;10359187;28;20069;-66
2021/12/20 20:12:57;;;;;;;17.80;7.97;;;;;;;-1.33;100.00;99349.13;10382678;28;20426;-68
2021/12/20 20:18:02;;;;;;;22.70;9.07;;;;;;;-1.41;100.00;99354.72;10362909;28;20074;-64
2021/12/20 20:23:05;;;;;;;17.98;8.02;;;;;;;-1.42;100.00;99343.31;10363513;28;20045;-64
2021/12/20 20:28:08;;;;;;;16.95;7.35;;;;;;;-1.46;100.00;99349.63;10358668;28;20136;-63
2021/12/20 20:33:12;;;;;;;18.23;8.73;;;;;;;-1.46;100.00;99354.03;10345672;28;20120;-65
2021/12/20 20:38:15;;;;;;;22.52;8.35;;;;;;;-1.49;100.00;99354.19;10347269;28;20153;-58
2021/12/20 20:43:18;;;;;;;21.15;8.18;;;;;;;-1.48;100.00;99351.47;10362599;28;20125;-59
2021/12/20 20:48:23;;;;;;;22.55;7.50;;;;;;;-1.47;100.00;99360.28;10359630;28;20121;-66
2021/12/20 20:53:26;;;;;;;19.83;7.18;;;;;;;-1.46;100.00;99359.31;10356166;28;20052;-58
2021/12/20 20:58:29;;;;;;;16.73;6.10;;;;;;;-1.40;100.00;99364.38;10351338;28;20054;-61
2021/12/20 21:03:34;;;;;;;17.50;6.60;;;;;;;-1.36;100.00;99362.47;10349275;28;20038;-61
2021/12/20 21:08:38;;;;;;;18.67;6.07;;;;;;;-1.34;100.00;99366.75;10356508;28;20048;-61
2021/12/20 21:13:42;;;;;;;18.02;7.95;;;;;;;-1.36;100.00;99365.97;10358284;28;20046;-58
2021/12/20 21:18:46;;;;;;;18.08;8.63;;;;;;;-1.36;100.00;99371.25;10355920;28;20074;-62
2021/12/20 21:23:50;;;;;;;16.33;8.88;;;;;;;-1.32;100.00;99372.00;10337277;28;20058;-63
2021/12/20 21:28:54;;;;;;;21.90;10.43;;;;;;;-1.33;100.00;99368.47;10355573;28;20117;-59
2021/12/20 21:33:58;;;;;;;18.38;9.52;;;;;;;-1.31;100.00;99366.63;10351551;28;20045;-64
2021/12/20 21:39:05;;;;;;;22.60;11.07;;;;;;;-1.30;100.00;99356.94;10350782;28;20038;-62
2021/12/20 21:44:09;;;;;;;30.48;13.57;;;;;;;-1.26;100.00;99359.38;10356633;28;20046;-59
2021/12/20 21:49:13;;;;;;;12.77;6.82;;;;;;;-1.21;100.00;99356.56;10359292;28;20052;-59
2021/12/20 21:54:17;;;;;;;17.27;7.68;;;;;;;-1.18;100.00;99350.25;10352879;28;20141;-65
2021/12/20 21:59:21;;;;;;;21.10;8.15;;;;;;;-1.16;100.00;99343.97;10357925;28;20056;-56
2021/12/20 22:04:26;;;;;;;17.65;8.38;;;;;;;-1.14;100.00;99346.56;10355035;28;20483;-55
2021/12/20 22:09:29;;;;;;;18.77;7.18;;;;;;;-1.13;100.00;99343.84;10350803;28;20038;-60
2021/12/20 22:14:33;;;;;;;19.42;7.57;;;;;;;-1.13;100.00;99348.31;10352816;28;20149;-53
2021/12/20 22:19:37;;;;;;;20.15;7.63;;;;;;;-1.12;100.00;99340.28;10334670;28;20037;-55
2021/12/20 22:24:40;;;;;;;16.70;7.18;;;;;;;-1.11;100.00;99346.44;10359884;28;20042;-64
2021/12/20 22:29:44;;;;;;;18.27;8.00;;;;;;;-1.11;100.00;99349.06;10359250;28;20054;-59
2021/12/20 22:34:48;;;;;;;19.17;7.65;;;;;;;-1.09;100.00;99344.59;10358803;28;20042;-63
2021/12/20 22:39:52;;;;;;;22.48;7.90;;;;;;;-1.11;100.00;99342.00;10337748;28;20108;-61
2021/12/20 22:44:55;;;;;;;21.85;7.88;;;;;;;-1.12;100.00;99339.44;10367824;28;20064;-56
2021/12/20 22:50:03;;;;;;;22.63;7.95;;;;;;;-1.10;100.00;99337.56;10354075;28;20045;-61
2021/12/20 22:55:07;;;;;;;21.58;7.38;;;;;;;-1.11;100.00;99336.72;10336402;28;20104;-61
2021/12/20 23:00:15;;;;;;;19.80;7.80;;;;;;;-1.09;100.00;99337.53;10353803;28;20049;-61
2021/12/20 23:05:21;;;;;;;19.05;9.30;;;;;;;-1.06;100.00;99333.88;10353444;28;20521;-61
2021/12/20 23:10:27;;;;;;;14.10;7.40;;;;;;;-1.04;100.00;99334.69;10352913;28;20112;-62
2021/12/20 23:15:33;;;;;;;14.45;7.10;;;;;;;-1.02;100.00;99330.19;10352347;28;20050;-58
2021/12/20 23:20:39;;;;;;;20.88;7.10;;;;;;;-0.98;100.00;99333.56;10354471;28;20037;-61
2021/12/20 23:25:45;;;;;;;15.45;7.03;;;;;;;-0.96;100.00;99339.66;10351917;28;20037;-62
2021/12/20 23:30:50;;;;;;;15.98;8.32;;;;;;;-0.94;100.00;99338.66;10347242;28;20120;-61
2021/12/20 23:35:55;;;;;;;18.30;8.55;;;;;;;-0.91;100.00;99336.81;10338805;28;20081;-58
2021/12/20 23:41:01;;;;;;;17.83;7.82;;;;;;;-0.88;100.00;99331.38;10358656;28;20045;-61